Time;durP1;ratioP1;P1;durP2;ratioP2;P2;SDS_P1;SDS_P2;PMS_P1;PMS_P2;Temp;Humidity;BMP_temperature;BMP_pressure;BME280_temperature;BME280_humidity;BME280_pressure;Samples;Min_cycle;Max_cycle;Signal;HPM_P1;HPM_P2
2021/12/19 00:10:05;;;;;;;4.85;2.63;;;;;;;;;;6143680;23;20052;-77
2021/12/19 00:12:31;;;;;;;5.47;1.58;;;;;;;;;;6144771;23;20063;-76
2021/12/19 00:14:57;;;;;;;3.40;1.42;;;;;;;;;;6118753;23;20008;-75
2021/12/19 00:17:24;;;;;;;5.32;1.60;;;;;;;;;;6145560;23;20319;-73
2021/12/19 00:19:50;;;;;;;10.18;1.95;;;;;;;;;;6143198;23;20014;-77
2021/12/19 00:22:16;;;;;;;4.22;1.33;;;;;;;;;;6142752;23;20021;-73
2021/12/19 00:24:42;;;;;;;4.88;1.60;;;;;;;;;;6143282;23;19997;-74
2021/12/19 00:27:08;;;;;;;4.38;1.45;;;;;;;;;;6143123;23;20008;-73
2021/12/19 00:29:34;;;;;;;3.70;1.52;;;;;;;;;;6117049;23;20422;-76
2021/12/19 00:32:01;;;;;;;5.07;1.23;;;;;;;;;;6142975;23;19998;-73
2021/12/19 00:34:27;;;;;;;3.83;1.35;;;;;;;;;;6141352;23;20017;-76
2021/12/19 00:36:53;;;;;;;4.85;1.42;;;;;;;;;;6118562;23;20112;-75
2021/12/19 00:39:19;;;;;;;6.20;1.92;;;;;;;;;;6145194;23;20486;-74
2021/12/19 00:41:52;;;;;;;2.97;1.38;;;;;;;;;;6145219;23;20374;-74
2021/12/19 00:44:22;;;;;;;5.30;1.48;;;;;;;;;;6145444;23;20060;-72
2021/12/19 00:46:51;;;;;;;4.85;1.67;;;;;;;;;;6145000;23;20017;-72
2021/12/19 00:49:18;;;;;;;3.10;1.48;;;;;;;;;;6145199;23;20048;-73
2021/12/19 00:51:44;;;;;;;6.20;1.42;;;;;;;;;;6145315;23;20005;-72
2021/12/19 00:54:11;;;;;;;3.00;1.60;;;;;;;;;;6120747;23;20005;-76
2021/12/19 00:56:38;;;;;;;12.32;2.10;;;;;;;;;;6146239;23;20013;-75
2021/12/19 00:59:04;;;;;;;5.35;1.35;;;;;;;;;;6147651;23;20446;-75
2021/12/19 01:01:31;;;;;;;4.05;1.50;;;;;;;;;;6148103;23;20014;-76
2021/12/19 01:03:57;;;;;;;5.05;1.70;;;;;;;;;;6147944;23;20494;-73
2021/12/19 01:06:23;;;;;;;6.85;1.70;;;;;;;;;;6146150;23;20009;-72
2021/12/19 01:08:50;;;;;;;8.18;1.60;;;;;;;;;;6147820;23;20002;-72
2021/12/19 01:11:17;;;;;;;4.18;1.20;;;;;;;;;;6147196;23;20056;-77
2021/12/19 01:13:43;;;;;;;4.93;1.70;;;;;;;;;;6147701;23;20011;-74
2021/12/19 01:16:09;;;;;;;6.35;1.63;;;;;;;;;;6148561;23;20009;-76
2021/12/19 01:18:35;;;;;;;3.00;1.38;;;;;;;;;;6147686;23;20465;-75
2021/12/19 01:21:01;;;;;;;2.70;1.35;;;;;;;;;;6149417;23;20017;-73
2021/12/19 01:23:27;;;;;;;5.57;1.40;;;;;;;;;;6149781;23;20088;-72
2021/12/19 01:25:54;;;;;;;4.20;1.63;;;;;;;;;;6149364;23;19998;-76
2021/12/19 01:28:20;;;;;;;7.05;1.90;;;;;;;;;;6149676;23;19998;-77
2021/12/19 01:30:46;;;;;;;2.47;1.63;;;;;;;;;;6149442;23;20002;-76
2021/12/19 01:33:12;;;;;;;5.63;1.92;;;;;;;;;;6147689;23;20578;-73
2021/12/19 01:35:38;;;;;;;5.32;1.40;;;;;;;;;;6149724;23;20031;-71
2021/12/19 01:38:05;;;;;;;2.65;1.30;;;;;;;;;;6147876;23;19998;-76
2021/12/19 01:40:31;;;;;;;5.18;1.55;;;;;;;;;;6149573;23;20100;-76
2021/12/19 01:42:58;;;;;;;4.78;1.70;;;;;;;;;;6121581;23;20415;-73
2021/12/19 01:45:26;;;;;;;2.97;1.45;;;;;;;;;;6148717;23;20002;-74
2021/12/19 01:47:52;;;;;;;4.55;1.60;;;;;;;;;;6154136;23;20028;-75
2021/12/19 01:50:18;;;;;;;5.72;1.63;;;;;;;;;;6149145;23;20025;-73
2021/12/19 01:52:45;;;;;;;9.30;1.60;;;;;;;;;;6148819;23;20002;-73
2021/12/19 01:55:12;;;;;;;4.78;1.40;;;;;;;;;;6149104;23;20083;-75
2021/12/19 01:57:38;;;;;;;3.38;1.38;;;;;;;;;;6123057;23;20016;-73
2021/12/19 02:00:06;;;;;;;5.43;1.50;;;;;;;;;;6149253;23;20001;-73
2021/12/19 02:02:32;;;;;;;3.72;1.45;;;;;;;;;;6146881;23;20418;-72
2021/12/19 02:04:58;;;;;;;2.97;1.48;;;;;;;;;;6152563;23;20028;-73
2021/12/19 02:07:26;;;;;;;5.80;1.83;;;;;;;;;;6153166;23;20005;-75
2021/12/19 02:09:52;;;;;;;7.00;2.03;;;;;;;;;;6153241;23;20008;-74
2021/12/19 02:12:18;;;;;;;6.13;1.65;;;;;;;;;;6150040;23;20001;-75
2021/12/19 02:14:45;;;;;;;2.92;1.50;;;;;;;;;;6152983;23;19998;-74
2021/12/19 02:17:11;;;;;;;4.57;1.60;;;;;;;;;;6152934;23;20001;-71
2021/12/19 02:19:37;;;;;;;14.13;2.13;;;;;;;;;;6152554;23;20054;-73
2021/12/19 02:22:03;;;;;;;4.63;1.48;;;;;;;;;;6152987;23;20024;-74
2021/12/19 02:24:29;;;;;;;5.03;1.60;;;;;;;;;;6153145;23;20005;-73
2021/12/19 02:26:55;;;;;;;4.28;1.83;;;;;;;;;;6150614;23;20005;-71
2021/12/19 02:29:21;;;;;;;5.50;2.17;;;;;;;;;;6149380;23;20002;-73
2021/12/19 02:31:48;;;;;;;3.72;1.50;;;;;;;;;;6148849;23;20005;-74
2021/12/19 02:34:21;;;;;;;2.78;1.50;;;;;;;;;;6149380;23;20487;-73
2021/12/19 02:37:02;;;;;;;4.18;1.45;;;;;;;;;;6149631;23;20009;-76
2021/12/19 02:50:17;;;;;;;6.22;1.80;;;;;;;;;;6153024;23;20498;-74
2021/12/19 02:52:43;;;;;;;7.35;1.70;;;;;;;;;;6152892;23;20012;-71
2021/12/19 02:55:10;;;;;;;2.10;1.33;;;;;;;;;;6152661;23;19997;-73
2021/12/19 02:57:37;;;;;;;5.63;1.38;;;;;;;;;;6152597;23;20001;-74
2021/12/19 03:00:08;;;;;;;6.45;1.70;;;;;;;;;;6151286;23;20441;-72
2021/12/19 03:02:34;;;;;;;5.35;1.60;;;;;;;;;;6152313;23;20068;-73
2021/12/19 03:05:01;;;;;;;6.57;1.50;;;;;;;;;;6152711;23;20032;-74
2021/12/19 03:07:27;;;;;;;5.57;1.40;;;;;;;;;;6150923;23;20001;-72
2021/12/19 03:12:35;;;;;;;3.40;1.58;;;;;;;;;;6151112;23;20009;-72
2021/12/19 03:18:01;;;;;;;4.20;1.90;;;;;;;;;;6152986;23;20087;-74
2021/12/19 03:20:28;;;;;;;3.45;1.52;;;;;;;;;;6152570;23;20017;-73
2021/12/19 03:22:54;;;;;;;5.50;1.80;;;;;;;;;;6126012;23;20013;-75
2021/12/19 03:25:20;;;;;;;6.60;1.98;;;;;;;;;;6126706;23;20071;-74
2021/12/19 03:27:46;;;;;;;4.88;1.55;;;;;;;;;;6152590;23;20073;-73
2021/12/19 03:30:13;;;;;;;7.57;2.10;;;;;;;;;;6152020;23;20001;-75
2021/12/19 03:32:39;;;;;;;6.95;2.00;;;;;;;;;;6146814;23;20013;-75
2021/12/19 03:35:06;;;;;;;6.18;1.88;;;;;;;;;;6148694;23;20106;-71
2021/12/19 03:37:33;;;;;;;6.70;1.88;;;;;;;;;;6152222;23;20013;-71
2021/12/19 03:40:09;;;;;;;4.95;1.77;;;;;;;;;;6152412;23;20088;-72
2021/12/19 03:42:37;;;;;;;3.28;1.42;;;;;;;;;;6147152;23;20509;-72
2021/12/19 03:45:04;;;;;;;7.93;1.70;;;;;;;;;;6146152;23;20005;-73
2021/12/19 03:47:30;;;;;;;5.10;2.00;;;;;;;;;;6121698;23;20016;-72
2021/12/19 03:49:56;;;;;;;7.57;1.90;;;;;;;;;;6141883;23;20000;-74
2021/12/19 03:52:22;;;;;;;7.43;1.77;;;;;;;;;;6142971;23;20407;-76
2021/12/19 03:54:48;;;;;;;6.00;1.55;;;;;;;;;;6114257;23;20495;-73
2021/12/19 03:57:15;;;;;;;4.53;1.55;;;;;;;;;;6142015;23;20621;-74
2021/12/19 03:59:43;;;;;;;2.67;1.58;;;;;;;;;;6142566;23;20688;-72
2021/12/19 04:02:11;;;;;;;3.10;1.73;;;;;;;;;;6140235;23;20590;-72
2021/12/19 04:04:39;;;;;;;4.57;1.50;;;;;;;;;;6109301;23;20024;-76
2021/12/19 04:07:05;;;;;;;3.97;1.50;;;;;;;;;;6139329;23;20029;-73
2021/12/19 04:09:31;;;;;;;4.43;1.50;;;;;;;;;;6139716;23;20001;-73
2021/12/19 04:11:58;;;;;;;3.75;1.60;;;;;;;;;;6138664;23;20014;-74
2021/12/19 04:14:24;;;;;;;6.03;2.17;;;;;;;;;;6139496;23;20002;-73
2021/12/19 04:16:50;;;;;;;2.72;1.50;;;;;;;;;;6139220;23;20037;-75
2021/12/19 04:19:20;;;;;;;7.07;2.20;;;;;;;;;;6136845;23;20020;-75
2021/12/19 04:21:46;;;;;;;5.18;1.80;;;;;;;;;;6138930;23;20017;-73
2021/12/19 04:24:12;;;;;;;3.20;1.83;;;;;;;;;;6139688;23;20489;-75
2021/12/19 04:26:38;;;;;;;9.90;2.28;;;;;;;;;;6139414;23;20047;-73
2021/12/19 04:29:04;;;;;;;5.13;2.08;;;;;;;;;;6139731;23;20001;-73
2021/12/19 04:31:31;;;;;;;5.32;1.90;;;;;;;;;;6137152;23;20336;-73
2021/12/19 04:33:57;;;;;;;3.45;1.85;;;;;;;;;;6139863;23;20161;-72
2021/12/19 04:36:30;;;;;;;7.85;2.10;;;;;;;;;;6139368;23;20024;-73
2021/12/19 04:42:06;;;;;;;8.15;1.90;;;;;;;;;;6139480;23;20021;-74
2021/12/19 04:44:47;;;;;;;3.65;1.65;;;;;;;;;;6134573;23;20014;-75
2021/12/19 04:57:44;;;;;;;6.15;2.35;;;;;;;;;;6139558;23;20061;-73
2021/12/19 05:00:18;;;;;;;16.85;1.90;;;;;;;;;;6141213;23;20009;-75
2021/12/19 05:02:56;;;;;;;5.80;1.50;;;;;;;;;;6138378;23;20009;-75
2021/12/19 05:05:47;;;;;;;5.10;1.65;;;;;;;;;;6139502;23;20001;-73
2021/12/19 05:16:27;;;;;;;3.95;1.50;;;;;;;;;;6139862;23;20035;-74
2021/12/19 05:19:01;;;;;;;5.45;1.73;;;;;;;;;;6141964;23;20010;-75
2021/12/19 05:21:29;;;;;;;11.43;3.13;;;;;;;;;;6143407;23;20097;-72
2021/12/19 05:26:24;;;;;;;3.28;1.73;;;;;;;;;;6153400;23;20005;-71
2021/12/19 05:28:52;;;;;;;3.65;1.80;;;;;;;;;;6142139;23;20005;-73
2021/12/19 05:31:19;;;;;;;8.05;1.90;;;;;;;;;;6142957;23;20037;-72
2021/12/19 05:33:46;;;;;;;8.35;1.80;;;;;;;;;;6116460;23;20335;-73
2021/12/19 05:46:59;;;;;;;5.07;2.08;;;;;;;;;;6143338;23;20639;-73
2021/12/19 05:49:25;;;;;;;8.05;1.92;;;;;;;;;;6143151;23;20002;-75
2021/12/19 05:51:52;;;;;;;7.70;1.95;;;;;;;;;;6141201;23;20017;-73
2021/12/19 05:54:18;;;;;;;3.70;1.60;;;;;;;;;;6143181;23;20453;-74
2021/12/19 05:56:44;;;;;;;3.13;1.60;;;;;;;;;;6143272;23;20002;-72
2021/12/19 05:59:11;;;;;;;4.05;1.65;;;;;;;;;;6143495;23;19997;-72
2021/12/19 06:01:42;;;;;;;8.68;4.10;;;;;;;;;;6140994;23;20462;-73
2021/12/19 06:04:09;;;;;;;5.15;1.63;;;;;;;;;;6143317;23;20001;-72
2021/12/19 06:06:35;;;;;;;4.25;2.13;;;;;;;;;;6143000;23;20028;-73
2021/12/19 06:09:01;;;;;;;4.72;1.83;;;;;;;;;;6143172;23;20010;-72
2021/12/19 06:11:27;;;;;;;2.95;1.65;;;;;;;;;;6117788;23;20012;-72
2021/12/19 06:13:53;;;;;;;4.75;1.75;;;;;;;;;;6141397;23;20002;-72
2021/12/19 06:16:19;;;;;;;4.50;1.60;;;;;;;;;;6143047;23;19998;-72
2021/12/19 06:18:47;;;;;;;2.90;1.80;;;;;;;;;;6143239;23;20009;-72
2021/12/19 06:21:13;;;;;;;5.65;1.90;;;;;;;;;;6143302;23;20012;-72
2021/12/19 06:23:39;;;;;;;7.68;2.05;;;;;;;;;;6141122;23;20327;-73
2021/12/19 06:26:10;;;;;;;5.25;1.85;;;;;;;;;;6143011;23;20496;-72
2021/12/19 06:28:36;;;;;;;5.68;2.80;;;;;;;;;;6142620;23;20015;-72
2021/12/19 06:31:02;;;;;;;4.55;1.75;;;;;;;;;;6142847;23;19994;-72
2021/12/19 06:33:28;;;;;;;3.78;2.05;;;;;;;;;;6142745;23;20009;-72
2021/12/19 06:35:55;;;;;;;4.65;1.75;;;;;;;;;;6117337;23;20031;-72
2021/12/19 06:38:21;;;;;;;6.95;1.95;;;;;;;;;;6141010;23;20006;-73
2021/12/19 06:40:47;;;;;;;6.13;1.98;;;;;;;;;;6142616;23;20001;-74
2021/12/19 06:43:13;;;;;;;5.30;1.70;;;;;;;;;;6143097;23;20017;-73
2021/12/19 06:45:39;;;;;;;5.25;1.98;;;;;;;;;;6143463;23;20021;-72
2021/12/19 06:48:05;;;;;;;9.10;1.88;;;;;;;;;;6140817;23;20009;-74
2021/12/19 06:50:32;;;;;;;2.22;1.65;;;;;;;;;;6142972;23;20002;-73
2021/12/19 06:52:58;;;;;;;4.22;1.83;;;;;;;;;;6142781;23;20438;-72
2021/12/19 06:55:24;;;;;;;4.97;2.03;;;;;;;;;;6143133;23;20759;-74
2021/12/19 06:57:50;;;;;;;5.95;1.77;;;;;;;;;;6142985;23;20013;-74
2021/12/19 07:00:18;;;;;;;4.13;2.00;;;;;;;;;;6140590;23;20008;-74
2021/12/19 07:02:44;;;;;;;7.28;1.70;;;;;;;;;;6142346;23;20012;-73
2021/12/19 07:05:10;;;;;;;4.40;1.80;;;;;;;;;;6143087;23;20009;-73
2021/12/19 07:07:36;;;;;;;5.97;2.15;;;;;;;;;;6142868;23;20002;-74
2021/12/19 07:10:03;;;;;;;3.88;1.80;;;;;;;;;;6142985;23;20029;-72
2021/12/19 07:12:29;;;;;;;3.38;1.90;;;;;;;;;;6140497;23;20001;-72
2021/12/19 07:14:56;;;;;;;4.55;1.85;;;;;;;;;;6142714;23;20077;-72
2021/12/19 07:17:22;;;;;;;4.03;2.50;;;;;;;;;;6140931;23;19998;-73
2021/12/19 07:19:48;;;;;;;4.57;2.00;;;;;;;;;;6139335;23;20006;-73
2021/12/19 07:22:15;;;;;;;3.95;1.83;;;;;;;;;;6139579;23;20016;-73
2021/12/19 07:24:41;;;;;;;4.55;1.55;;;;;;;;;;6142090;23;20001;-73
2021/12/19 07:27:07;;;;;;;6.72;2.42;;;;;;;;;;6142228;23;20018;-72
2021/12/19 07:29:33;;;;;;;11.13;2.00;;;;;;;;;;6142815;23;20084;-72
2021/12/19 07:32:00;;;;;;;2.88;1.80;;;;;;;;;;6141006;23;20001;-73
2021/12/19 07:34:32;;;;;;;3.72;2.03;;;;;;;;;;6142690;23;19993;-72
2021/12/19 07:36:59;;;;;;;5.18;2.17;;;;;;;;;;6142389;23;20021;-73
2021/12/19 07:42:08;;;;;;;5.85;2.10;;;;;;;;;;6150299;23;20025;-73
2021/12/19 07:44:35;;;;;;;4.68;1.70;;;;;;;;;;6142600;23;20646;-74
2021/12/19 07:47:01;;;;;;;2.85;1.92;;;;;;;;;;6116060;23;20381;-72
2021/12/19 07:49:27;;;;;;;6.55;2.45;;;;;;;;;;6142798;23;20601;-75
2021/12/19 07:51:54;;;;;;;3.95;1.83;;;;;;;;;;6140789;23;20060;-73
2021/12/19 07:54:20;;;;;;;5.32;2.35;;;;;;;;;;6142002;23;20006;-72
2021/12/19 07:56:46;;;;;;;3.75;2.10;;;;;;;;;;6141853;23;20008;-73
2021/12/19 07:59:13;;;;;;;2.60;1.80;;;;;;;;;;6142167;23;20001;-72
2021/12/19 08:01:39;;;;;;;4.15;1.75;;;;;;;;;;6140112;23;20010;-73
2021/12/19 08:04:05;;;;;;;6.55;2.38;;;;;;;;;;6142437;23;20012;-72
2021/12/19 08:06:31;;;;;;;3.10;1.88;;;;;;;;;;6141693;23;19997;-74
2021/12/19 08:09:07;;;;;;;5.57;1.95;;;;;;;;;;6142417;23;20088;-73
2021/12/19 08:11:42;;;;;;;6.38;2.08;;;;;;;;;;6140501;23;20027;-72
2021/12/19 08:14:10;;;;;;;5.40;2.17;;;;;;;;;;6142117;23;20089;-73
2021/12/19 08:16:37;;;;;;;4.72;2.22;;;;;;;;;;6142551;23;20025;-74
2021/12/19 08:19:03;;;;;;;5.25;1.70;;;;;;;;;;6142090;23;20253;-74
2021/12/19 08:21:29;;;;;;;4.22;2.10;;;;;;;;;;6141917;23;20435;-73
2021/12/19 08:24:01;;;;;;;5.15;2.30;;;;;;;;;;6140289;23;19997;-73
2021/12/19 08:26:27;;;;;;;3.88;1.80;;;;;;;;;;6140062;23;20001;-74
2021/12/19 08:28:53;;;;;;;3.72;2.00;;;;;;;;;;6141556;23;20550;-73
2021/12/19 08:31:20;;;;;;;4.75;2.30;;;;;;;;;;6142645;23;19997;-74
2021/12/19 08:33:46;;;;;;;3.20;2.03;;;;;;;;;;6141060;23;20041;-73
2021/12/19 08:36:12;;;;;;;6.82;1.85;;;;;;;;;;6142348;23;19997;-73
2021/12/19 08:38:38;;;;;;;6.18;1.92;;;;;;;;;;6141949;23;20015;-73
2021/12/19 08:41:05;;;;;;;5.30;2.17;;;;;;;;;;6142289;23;20012;-73
2021/12/19 08:43:31;;;;;;;6.07;2.25;;;;;;;;;;6142089;23;20020;-75
2021/12/19 08:45:57;;;;;;;4.32;2.00;;;;;;;;;;6140435;23;20077;-73
2021/12/19 08:48:23;;;;;;;4.80;1.80;;;;;;;;;;6142313;23;20076;-74
2021/12/19 08:50:49;;;;;;;6.28;2.22;;;;;;;;;;6141809;23;19998;-73
2021/12/19 08:53:17;;;;;;;3.78;2.17;;;;;;;;;;6115806;23;20008;-74
2021/12/19 08:55:43;;;;;;;2.50;1.70;;;;;;;;;;6142206;23;20009;-72
2021/12/19 08:58:09;;;;;;;3.55;1.83;;;;;;;;;;6140748;23;20009;-73
2021/12/19 09:00:36;;;;;;;4.95;2.58;;;;;;;;;;6142217;23;20554;-73
2021/12/19 09:03:02;;;;;;;2.97;1.80;;;;;;;;;;6141494;23;20006;-72
2021/12/19 09:05:29;;;;;;;4.50;1.73;;;;;;;;;;6142343;23;20005;-73
2021/12/19 09:07:56;;;;;;;3.17;2.03;;;;;;;;;;6142425;23;20104;-72
2021/12/19 09:10:22;;;;;;;5.55;1.80;;;;;;;;;;6142204;23;19997;-72
2021/12/19 09:12:49;;;;;;;3.05;1.70;;;;;;;;;;6139951;23;20009;-73
2021/12/19 09:15:15;;;;;;;3.67;1.90;;;;;;;;;;6141644;23;19998;-73
2021/12/19 09:17:41;;;;;;;4.30;1.88;;;;;;;;;;6141989;23;20029;-73
2021/12/19 09:20:08;;;;;;;7.45;2.05;;;;;;;;;;6141922;23;20013;-74
2021/12/19 09:22:35;;;;;;;3.92;1.92;;;;;;;;;;6115645;23;20017;-73
2021/12/19 09:25:01;;;;;;;4.97;2.15;;;;;;;;;;6114135;23;20006;-73
2021/12/19 09:27:27;;;;;;;3.40;2.30;;;;;;;;;;6116379;23;20090;-74
2021/12/19 09:29:54;;;;;;;4.00;1.88;;;;;;;;;;6141685;23;20198;-73
2021/12/19 09:32:20;;;;;;;7.90;2.80;;;;;;;;;;6141688;23;20013;-73
2021/12/19 09:34:47;;;;;;;5.80;2.40;;;;;;;;;;6140016;23;20002;-73
2021/12/19 09:37:13;;;;;;;6.82;2.47;;;;;;;;;;6142387;23;19998;-72
2021/12/19 09:39:39;;;;;;;3.70;1.88;;;;;;;;;;6143462;23;20326;-73
2021/12/19 09:42:10;;;;;;;3.53;1.70;;;;;;;;;;6143570;23;20653;-73
2021/12/19 09:44:38;;;;;;;5.05;1.75;;;;;;;;;;6141323;23;20393;-74
2021/12/19 09:47:05;;;;;;;4.82;1.92;;;;;;;;;;6143796;23;20363;-73
2021/12/19 09:49:34;;;;;;;7.20;2.15;;;;;;;;;;6143418;23;20029;-72
2021/12/19 09:52:02;;;;;;;3.65;1.73;;;;;;;;;;6143975;23;20012;-72
2021/12/19 09:54:28;;;;;;;3.63;2.08;;;;;;;;;;6144013;23;20498;-73
2021/12/19 09:56:54;;;;;;;5.78;2.30;;;;;;;;;;6117579;23;20092;-73
2021/12/19 09:59:21;;;;;;;4.75;2.20;;;;;;;;;;6142241;23;20028;-73
2021/12/19 10:01:49;;;;;;;5.82;2.38;;;;;;;;;;6143550;23;20471;-73
2021/12/19 10:04:33;;;;;;;3.95;2.47;;;;;;;;;;6143410;23;20002;-73
2021/12/19 10:07:14;;;;;;;4.20;1.98;;;;;;;;;;6141858;23;20345;-74
2021/12/19 10:09:50;;;;;;;2.75;1.95;;;;;;;;;;6143625;23;20006;-73
2021/12/19 10:15:12;;;;;;;3.88;2.03;;;;;;;;;;6153585;23;20013;-72
2021/12/19 10:17:39;;;;;;;3.58;2.20;;;;;;;;;;6143721;23;20025;-72
2021/12/19 10:20:09;;;;;;;4.80;2.65;;;;;;;;;;6142495;23;20023;-74
2021/12/19 10:22:37;;;;;;;4.43;2.40;;;;;;;;;;6143492;23;20037;-72
2021/12/19 10:25:14;;;;;;;4.60;2.30;;;;;;;;;;6143689;23;20002;-73
2021/12/19 10:27:42;;;;;;;4.57;2.30;;;;;;;;;;6116948;23;20186;-73
2021/12/19 10:30:32;;;;;;;4.05;2.20;;;;;;;;;;6141512;23;20061;-72
2021/12/19 10:32:58;;;;;;;3.95;2.25;;;;;;;;;;6128044;23;20013;-73
2021/12/19 10:35:24;;;;;;;4.13;2.22;;;;;;;;;;6143413;23;19997;-74
2021/12/19 10:37:50;;;;;;;4.70;2.55;;;;;;;;;;6143583;23;20052;-73
2021/12/19 10:40:17;;;;;;;2.95;1.80;;;;;;;;;;6141069;23;20084;-74
2021/12/19 10:42:44;;;;;;;7.95;2.28;;;;;;;;;;6142721;23;20013;-73
2021/12/19 10:48:10;;;;;;;3.08;2.03;;;;;;;;;;6140962;23;20668;-72
2021/12/19 10:50:54;;;;;;;4.57;2.10;;;;;;;;;;6142927;23;20056;-73
2021/12/19 10:53:24;;;;;;;3.22;2.17;;;;;;;;;;6142893;23;20001;-72
2021/12/19 10:55:50;;;;;;;3.42;2.03;;;;;;;;;;6142869;23;19998;-73
2021/12/19 10:58:23;;;;;;;4.15;2.40;;;;;;;;;;6115280;23;20308;-73
2021/12/19 11:01:10;;;;;;;3.53;2.15;;;;;;;;;;6143388;23;20060;-74
2021/12/19 11:03:57;;;;;;;5.20;2.40;;;;;;;;;;6146313;23;20009;-72
2021/12/19 11:06:37;;;;;;;6.22;2.67;;;;;;;;;;6146647;23;20488;-73
2021/12/19 11:09:08;;;;;;;10.55;5.20;;;;;;;;;;6120267;23;20428;-73
2021/12/19 11:11:34;;;;;;;7.25;4.85;;;;;;;;;;6144798;23;20354;-73
2021/12/19 11:14:02;;;;;;;6.03;3.20;;;;;;;;;;6146701;23;19997;-74
2021/12/19 11:16:28;;;;;;;7.32;2.58;;;;;;;;;;6146663;23;20673;-74
2021/12/19 11:18:54;;;;;;;4.28;2.25;;;;;;;;;;6146567;23;20060;-73
2021/12/19 11:21:20;;;;;;;3.90;2.10;;;;;;;;;;6146875;23;20013;-73
2021/12/19 11:23:47;;;;;;;3.15;2.03;;;;;;;;;;6147034;23;20633;-73
2021/12/19 11:26:13;;;;;;;3.22;2.10;;;;;;;;;;6146511;23;20032;-72
2021/12/19 11:28:39;;;;;;;6.65;2.58;;;;;;;;;;6117425;23;20033;-73
2021/12/19 11:31:06;;;;;;;4.63;2.15;;;;;;;;;;6145980;23;20010;-74
2021/12/19 11:33:39;;;;;;;4.50;2.47;;;;;;;;;;6146273;23;20011;-72
2021/12/19 11:36:06;;;;;;;4.25;2.45;;;;;;;;;;6146093;23;20005;-72
2021/12/19 11:38:32;;;;;;;3.58;2.80;;;;;;;;;;6144330;23;20002;-73
2021/12/19 11:41:06;;;;;;;5.85;2.70;;;;;;;;;;6145695;23;20023;-72
2021/12/19 11:43:37;;;;;;;5.22;3.22;;;;;;;;;;6146319;23;20148;-72
2021/12/19 11:46:11;;;;;;;5.70;2.65;;;;;;;;;;6146393;23;20426;-73
2021/12/19 11:48:37;;;;;;;4.47;2.65;;;;;;;;;;6146731;23;20006;-73
2021/12/19 11:51:05;;;;;;;6.38;3.42;;;;;;;;;;6120163;23;20005;-74
2021/12/19 11:53:32;;;;;;;6.95;3.10;;;;;;;;;;6144517;23;20071;-72
2021/12/19 11:56:06;;;;;;;7.90;3.00;;;;;;;;;;6146283;23;20430;-73
2021/12/19 11:58:38;;;;;;;6.75;3.00;;;;;;;;;;6146688;23;20012;-72
2021/12/19 12:01:09;;;;;;;6.15;2.80;;;;;;;;;;6146237;23;20037;-73
2021/12/19 12:03:43;;;;;;;7.70;3.17;;;;;;;;;;6144464;23;20013;-72
2021/12/19 12:06:09;;;;;;;5.30;2.95;;;;;;;;;;6146088;23;20508;-73
2021/12/19 12:08:36;;;;;;;5.90;2.83;;;;;;;;;;6146151;23;20008;-73
2021/12/19 12:11:05;;;;;;;10.07;5.18;;;;;;;;;;6146370;23;20068;-72
2021/12/19 12:13:33;;;;;;;7.05;4.88;;;;;;;;;;6142176;23;20028;-71
2021/12/19 12:16:22;;;;;;;6.22;3.55;;;;;;;;;;6142610;23;20841;-72
2021/12/19 12:18:59;;;;;;;9.13;4.50;;;;;;;;;;6144360;23;20302;-73
2021/12/19 12:21:34;;;;;;;8.70;4.78;;;;;;;;;;6145970;23;20076;-74
2021/12/19 12:24:03;;;;;;;8.02;4.13;;;;;;;;;;6146166;23;20001;-72
2021/12/19 12:26:36;;;;;;;6.80;3.00;;;;;;;;;;6144185;23;20029;-72
2021/12/19 12:29:03;;;;;;;4.43;3.20;;;;;;;;;;6146303;23;20426;-72
2021/12/19 12:31:29;;;;;;;3.75;2.80;;;;;;;;;;6143958;23;20466;-72
2021/12/19 12:33:56;;;;;;;8.82;5.70;;;;;;;;;;6140501;23;20017;-72
2021/12/19 12:36:22;;;;;;;10.65;6.93;;;;;;;;;;6144318;23;20048;-73
2021/12/19 12:38:51;;;;;;;10.20;9.05;;;;;;;;;;6146090;23;20080;-72
2021/12/19 12:41:47;;;;;;;9.65;7.03;;;;;;;;;;6146151;23;19998;-72
2021/12/19 12:44:18;;;;;;;6.97;3.70;;;;;;;;;;6146503;23;20558;-72
2021/12/19 12:46:44;;;;;;;5.43;3.40;;;;;;;;;;6144999;23;20036;-73
2021/12/19 12:49:10;;;;;;;5.22;3.60;;;;;;;;;;6145950;23;20009;-72
2021/12/19 12:51:37;;;;;;;5.50;3.42;;;;;;;;;;6119854;23;20439;-72
2021/12/19 12:54:25;;;;;;;7.78;3.90;;;;;;;;;;6146562;23;20021;-73
2021/12/19 12:56:53;;;;;;;5.72;3.15;;;;;;;;;;6145879;23;20014;-72
2021/12/19 12:59:23;;;;;;;4.32;3.10;;;;;;;;;;6144083;23;20465;-73
2021/12/19 13:02:07;;;;;;;7.35;4.82;;;;;;;;;;6146013;23;20053;-72
2021/12/19 13:04:33;;;;;;;6.93;5.20;;;;;;;;;;6120292;23;20006;-72
2021/12/19 13:06:59;;;;;;;7.32;5.57;;;;;;;;;;6146030;23;20001;-72
2021/12/19 13:09:29;;;;;;;7.30;4.10;;;;;;;;;;6119636;23;20457;-72
2021/12/19 13:11:58;;;;;;;5.88;3.70;;;;;;;;;;6144620;23;20194;-72
2021/12/19 13:14:26;;;;;;;6.88;3.65;;;;;;;;;;6148277;23;20005;-73
2021/12/19 13:16:56;;;;;;;7.30;4.00;;;;;;;;;;6148220;23;20016;-72
2021/12/19 13:19:40;;;;;;;4.57;2.53;;;;;;;;;;6147913;23;20442;-72
2021/12/19 13:22:07;;;;;;;4.78;2.95;;;;;;;;;;6121810;23;20024;-74
2021/12/19 13:24:35;;;;;;;7.80;3.40;;;;;;;;;;6146229;23;19998;-73
2021/12/19 13:27:12;;;;;;;6.20;3.78;;;;;;;;;;6148159;23;20013;-74
2021/12/19 13:29:39;;;;;;;6.03;3.28;;;;;;;;;;6147944;23;20005;-72
2021/12/19 13:32:24;;;;;;;7.43;3.22;;;;;;;;;;6146199;23;20001;-72
2021/12/19 13:34:51;;;;;;;5.70;2.78;;;;;;;;;;6121611;23;20001;-73
2021/12/19 13:37:18;;;;;;;7.53;3.15;;;;;;;;;;6121796;23;20370;-72
2021/12/19 13:39:48;;;;;;;4.18;2.15;;;;;;;;;;6147464;23;20033;-73
2021/12/19 13:42:14;;;;;;;8.07;3.80;;;;;;;;;;6145694;23;20033;-72
2021/12/19 13:44:42;;;;;;;7.68;4.60;;;;;;;;;;6148502;23;20165;-73
2021/12/19 13:47:11;;;;;;;7.45;4.60;;;;;;;;;;6148168;23;20029;-72
2021/12/19 13:49:37;;;;;;;8.15;5.07;;;;;;;;;;6147523;23;20574;-73
2021/12/19 13:52:05;;;;;;;10.20;4.63;;;;;;;;;;6147460;23;20001;-74
2021/12/19 13:54:31;;;;;;;7.97;3.80;;;;;;;;;;6146246;23;20018;-73
2021/12/19 13:56:58;;;;;;;11.05;4.05;;;;;;;;;;6147516;23;20454;-72
2021/12/19 13:59:24;;;;;;;4.45;2.72;;;;;;;;;;6147896;23;19997;-72
2021/12/19 14:01:51;;;;;;;5.88;2.70;;;;;;;;;;6147231;23;20005;-74
2021/12/19 14:04:19;;;;;;;3.38;2.40;;;;;;;;;;6147796;23;20427;-73
2021/12/19 14:06:46;;;;;;;6.55;2.92;;;;;;;;;;6147369;23;20084;-72
2021/12/19 14:09:20;;;;;;;7.07;2.78;;;;;;;;;;6146108;23;20001;-72
2021/12/19 14:11:50;;;;;;;4.03;2.55;;;;;;;;;;6147561;23;20457;-73
2021/12/19 14:14:31;;;;;;;5.85;2.40;;;;;;;;;;6147279;23;20001;-72
2021/12/19 14:17:01;;;;;;;11.63;2.63;;;;;;;;;;6148023;23;20006;-73
2021/12/19 14:19:29;;;;;;;5.13;2.03;;;;;;;;;;6147263;23;20076;-72
2021/12/19 14:22:01;;;;;;;7.68;2.10;;;;;;;;;;6145484;23;20033;-72
2021/12/19 14:24:46;;;;;;;4.38;2.10;;;;;;;;;;6120728;23;20005;-73
2021/12/19 14:27:20;;;;;;;5.38;2.00;;;;;;;;;;6147751;23;20060;-73
2021/12/19 14:30:07;;;;;;;7.15;2.35;;;;;;;;;;6146021;23;20505;-73
2021/12/19 14:32:39;;;;;;;4.82;2.72;;;;;;;;;;6147294;23;20008;-73
2021/12/19 14:35:05;;;;;;;4.03;2.58;;;;;;;;;;6147462;23;20006;-72
2021/12/19 14:37:40;;;;;;;4.25;2.00;;;;;;;;;;6121584;23;20573;-73
2021/12/19 14:40:11;;;;;;;4.15;2.10;;;;;;;;;;6147316;23;20044;-73
2021/12/19 14:42:49;;;;;;;4.85;2.15;;;;;;;;;;6145420;23;20020;-72
2021/12/19 14:45:24;;;;;;;6.32;2.63;;;;;;;;;;6147342;23;20243;-73
2021/12/19 14:47:57;;;;;;;4.57;2.42;;;;;;;;;;6147788;23;20009;-73
2021/12/19 14:50:26;;;;;;;3.78;2.00;;;;;;;;;;6147180;23;20324;-73
2021/12/19 14:53:07;;;;;;;4.55;2.22;;;;;;;;;;6146793;23;20002;-74
2021/12/19 14:55:35;;;;;;;8.20;2.60;;;;;;;;;;6143197;23;20001;-73
2021/12/19 14:58:02;;;;;;;7.15;2.47;;;;;;;;;;6141228;23;20005;-73
2021/12/19 15:00:29;;;;;;;5.97;2.63;;;;;;;;;;6143397;23;20080;-72
2021/12/19 15:02:55;;;;;;;4.35;2.42;;;;;;;;;;6143016;23;20116;-73
2021/12/19 15:05:21;;;;;;;4.82;2.47;;;;;;;;;;6143249;23;19998;-73
2021/12/19 15:07:47;;;;;;;5.97;2.08;;;;;;;;;;6143327;23;20016;-72
2021/12/19 15:10:15;;;;;;;4.40;2.33;;;;;;;;;;6143396;23;20001;-72
2021/12/19 15:12:42;;;;;;;3.67;2.17;;;;;;;;;;6141321;23;20009;-72
2021/12/19 15:15:08;;;;;;;4.93;2.40;;;;;;;;;;6143511;23;20461;-73
2021/12/19 15:17:34;;;;;;;4.75;2.30;;;;;;;;;;6143389;23;20011;-72
2021/12/19 15:20:01;;;;;;;5.65;2.30;;;;;;;;;;6142719;23;20013;-73
2021/12/19 15:22:28;;;;;;;6.22;2.00;;;;;;;;;;6140832;23;20044;-73
2021/12/19 15:24:54;;;;;;;6.30;2.20;;;;;;;;;;6143252;23;20080;-72
2021/12/19 15:27:20;;;;;;;5.13;2.15;;;;;;;;;;6143557;23;20098;-73
2021/12/19 15:29:47;;;;;;;5.28;2.15;;;;;;;;;;6116941;23;20041;-73
2021/12/19 15:32:14;;;;;;;5.40;2.30;;;;;;;;;;6143167;23;20012;-72
2021/12/19 15:34:41;;;;;;;5.28;2.13;;;;;;;;;;6114966;23;20002;-73
2021/12/19 15:37:08;;;;;;;5.50;2.30;;;;;;;;;;6142741;23;20005;-72
2021/12/19 15:39:34;;;;;;;5.72;2.45;;;;;;;;;;6142858;23;20061;-75
2021/12/19 15:42:01;;;;;;;3.05;2.28;;;;;;;;;;6141021;23;20059;-73
2021/12/19 15:44:27;;;;;;;5.78;2.65;;;;;;;;;;6143269;23;20006;-72
2021/12/19 15:46:53;;;;;;;4.82;1.80;;;;;;;;;;6142777;23;20072;-72
2021/12/19 15:49:20;;;;;;;5.43;2.08;;;;;;;;;;6141224;23;20009;-73
2021/12/19 15:51:46;;;;;;;8.73;2.10;;;;;;;;;;6116433;23;20010;-72
2021/12/19 15:54:13;;;;;;;3.15;1.90;;;;;;;;;;6142856;23;20455;-73
2021/12/19 15:56:40;;;;;;;5.70;2.45;;;;;;;;;;6142776;23;20005;-72
2021/12/19 15:59:06;;;;;;;3.50;1.90;;;;;;;;;;6143435;23;20001;-72